Arsenal, Pennsylvania
Current Conditions -  °F | °C
As of 12:53 AM on Saturday 29 Nov 2014 (Local Time) from KAGC Reporting Station
Overcast Overcast  
Wind Chill: 19°   Ceiling: 7000
Heat Index: 27°   Visibility: 10mi
Dew Point: 16°   Wind: 7mph
Humidity: 63%   Direction: 160°SSE
Pressure: 30.15"   Gusts: NA
Location:  40.4738°N, 79.952°W
Report Text: KAGC 290553Z 16006KT 10SM OVC070 M03/M09 A3015 RMK AO2 SLP230 T10281089 11028 21039 56014
Loading
Personal Weather Stations






























Interactive Weather Map New forecast layout! Learn more

10-Day Weather Forecast

Advertisements
Track Severe Weather on mobile